createdAt,value
2023-05-25T00:02:04.796Z,100106.44
2023-05-25T00:04:34.512Z,100116.00
2023-05-25T00:07:01.514Z,100118.56
2023-05-25T00:09:28.139Z,100114.28
2023-05-25T00:11:55.078Z,100116.13
2023-05-25T00:14:23.773Z,100115.22
2023-05-25T00:16:53.248Z,100109.97
2023-05-25T00:19:22.256Z,100120.22
2023-05-25T00:21:48.936Z,100126.47
2023-05-25T00:24:15.684Z,100129.09
2023-05-25T00:26:42.442Z,100120.44
2023-05-25T00:29:09.063Z,100119.56
2023-05-25T00:31:40.136Z,100120.59
2023-05-25T00:34:06.729Z,100124.91
2023-05-25T00:36:33.361Z,100118.03
2023-05-25T00:39:00.018Z,100120.44
2023-05-25T00:41:30.870Z,100132.47
2023-05-25T00:44:00.250Z,100125.56
2023-05-25T00:46:29.121Z,100128.94
2023-05-25T00:48:56.301Z,100125.41
2023-05-25T00:51:23.575Z,100127.22
2023-05-25T00:53:52.553Z,100133.34
2023-05-25T00:56:24.181Z,100139.31
2023-05-25T00:58:59.083Z,100127.97
2023-05-25T01:01:33.490Z,100127.16
2023-05-25T01:04:04.190Z,100133.97
2023-05-25T01:06:34.918Z,100134.91
2023-05-25T01:09:04.444Z,100138.22
2023-05-25T01:11:42.197Z,100130.38
2023-05-25T01:14:14.066Z,100135.56
2023-05-25T01:16:44.842Z,100136.50
2023-05-25T01:19:11.553Z,100143.56
2023-05-25T01:22:04.026Z,100141.09
2023-05-25T01:24:32.829Z,100144.53
2023-05-25T01:27:15.274Z,100146.38
2023-05-25T01:29:44.267Z,100135.94
2023-05-25T01:32:14.024Z,100151.47
2023-05-25T01:34:43.145Z,100144.47
2023-05-25T01:37:13.471Z,100142.72
2023-05-25T01:39:41.359Z,100147.06
2023-05-25T01:42:10.681Z,100158.47
2023-05-25T01:44:42.536Z,100160.97
2023-05-25T01:47:54.486Z,100156.97
2023-05-25T01:50:34.522Z,100156.09
2023-05-25T01:53:09.611Z,100160.34
2023-05-25T01:55:54.964Z,100161.25
2023-05-25T01:58:23.179Z,100162.13
2023-05-25T02:00:51.696Z,100158.66
2023-05-25T02:03:21.336Z,100156.91
2023-05-25T02:05:48.083Z,100160.34
2023-05-25T02:08:16.988Z,100155.13
2023-05-25T02:10:46.216Z,100155.91
2023-05-25T02:13:12.873Z,100154.19
2023-05-25T02:15:39.575Z,100153.38
2023-05-25T02:18:08.664Z,100158.56
2023-05-25T02:20:36.957Z,100156.00
2023-05-25T02:23:03.834Z,100162.13
2023-05-25T02:25:34.975Z,100158.72
2023-05-25T02:28:03.770Z,100158.72
2023-05-25T02:30:32.879Z,100169.16
2023-05-25T02:32:59.484Z,100165.63
2023-05-25T02:35:26.207Z,100165.66
2023-05-25T02:37:52.786Z,100172.59
2023-05-25T02:40:22.181Z,100174.38
2023-05-25T02:42:51.784Z,100173.53
2023-05-25T02:45:18.455Z,100171.84
2023-05-25T02:47:47.421Z,100176.16
2023-05-25T02:50:13.914Z,100170.94
2023-05-25T02:52:40.707Z,100176.19
2023-05-25T02:55:10.343Z,100172.72
2023-05-25T02:57:39.446Z,100169.28
2023-05-25T03:00:07.536Z,100177.94
2023-05-25T03:02:39.369Z,100173.63
2023-05-25T03:05:08.748Z,100181.41
2023-05-25T03:07:35.691Z,100183.19
2023-05-25T03:10:05.199Z,100177.09
2023-05-25T03:12:31.772Z,100181.47
2023-05-25T03:15:00.509Z,100188.34
2023-05-25T03:17:29.555Z,100190.94
2023-05-25T03:19:56.225Z,100191.78
2023-05-25T03:22:25.186Z,100189.16
2023-05-25T03:24:53.923Z,100195.25
2023-05-25T03:27:24.970Z,100191.78
2023-05-25T03:29:51.766Z,100198.69
2023-05-25T03:32:20.652Z,100191.78
2023-05-25T03:34:47.154Z,100188.28
2023-05-25T03:37:16.017Z,100196.13
2023-05-25T03:39:42.622Z,100200.41
2023-05-25T03:42:11.423Z,100190.09
2023-05-25T03:44:39.298Z,100193.47
2023-05-25T03:47:07.639Z,100194.31
2023-05-25T03:49:39.074Z,100192.50
2023-05-25T03:52:09.123Z,100205.53
2023-05-25T03:54:35.734Z,100187.31
2023-05-25T03:57:03.801Z,100201.13
2023-05-25T03:59:33.569Z,100203.69
2023-05-25T04:02:02.244Z,100210.59
2023-05-25T04:04:31.061Z,100211.44
2023-05-25T04:06:57.618Z,100211.41
2023-05-25T04:09:24.184Z,100215.81
2023-05-25T04:11:50.780Z,100207.06
2023-05-25T04:14:17.399Z,100221.69
2023-05-25T04:16:45.710Z,100222.59
2023-05-25T04:19:12.727Z,100232.94
2023-05-25T04:21:41.509Z,100225.03
2023-05-25T04:24:11.417Z,100229.34
2023-05-25T04:26:41.508Z,100238.06
2023-05-25T04:29:12.152Z,100236.31
2023-05-25T04:31:41.079Z,100232.09
2023-05-25T04:34:14.532Z,100230.44
2023-05-25T04:36:43.219Z,100239.84
2023-05-25T04:39:12.126Z,100235.41
2023-05-25T04:41:39.370Z,100234.47
2023-05-25T04:44:09.702Z,100241.31
2023-05-25T04:46:39.377Z,100237.88
2023-05-25T04:49:09.018Z,100232.72
2023-05-25T04:51:36.058Z,100235.25
2023-05-25T04:54:06.036Z,100226.56
2023-05-25T04:56:35.182Z,100223.97
2023-05-25T04:59:04.497Z,100229.13
2023-05-25T05:01:31.263Z,100227.06
2023-05-25T05:03:57.985Z,100227.94
2023-05-25T05:06:27.140Z,100229.69
2023-05-25T05:08:53.738Z,100241.06
2023-05-25T05:11:20.355Z,100234.16
2023-05-25T05:13:46.972Z,100239.41
2023-05-25T05:16:15.892Z,100253.28
2023-05-25T05:18:42.590Z,100248.91
2023-05-25T05:21:11.569Z,100246.28
2023-05-25T05:23:40.767Z,100241.78
2023-05-25T05:26:11.055Z,100248.53
2023-05-25T05:28:38.185Z,100239.69
2023-05-25T05:31:07.554Z,100240.38
2023-05-25T05:33:34.339Z,100242.91
2023-05-25T05:36:05.816Z,100245.47
2023-05-25T05:38:32.439Z,100242.94
2023-05-25T05:40:59.117Z,100242.03
2023-05-25T05:43:30.602Z,100240.31
2023-05-25T05:45:57.148Z,100236.72
2023-05-25T05:48:23.766Z,100238.25
2023-05-25T05:50:53.341Z,100248.63
2023-05-25T05:53:19.935Z,100241.53
2023-05-25T05:55:51.792Z,100245.84
2023-05-25T05:58:20.191Z,100248.34
2023-05-25T06:00:51.584Z,100245.06
2023-05-25T06:03:18.355Z,100256.34
2023-05-25T06:05:45.247Z,100256.28
2023-05-25T06:08:14.818Z,100260.50
2023-05-25T06:10:42.545Z,100262.31
2023-05-25T06:13:09.471Z,100267.25
2023-05-25T06:15:38.376Z,100262.63
2023-05-25T06:18:05.175Z,100261.75
2023-05-25T06:20:31.850Z,100265.22
2023-05-25T06:22:58.485Z,100265.16
2023-05-25T06:25:25.140Z,100273.06
2023-05-25T06:27:54.097Z,100265.00
2023-05-25T06:30:22.931Z,100262.28
2023-05-25T06:32:49.457Z,100260.88
2023-05-25T06:35:20.019Z,100258.84
2023-05-25T06:37:48.622Z,100252.66
2023-05-25T06:40:22.475Z,100260.16
2023-05-25T06:42:49.080Z,100243.72
2023-05-25T06:45:16.598Z,100260.56
2023-05-25T06:47:43.399Z,100256.13
2023-05-25T06:50:10.327Z,100268.84
2023-05-25T06:52:39.973Z,100266.75
2023-05-25T06:55:18.721Z,100264.59
2023-05-25T06:57:47.521Z,100273.94
2023-05-25T07:00:14.322Z,100263.34
2023-05-25T07:02:41.025Z,100267.66
2023-05-25T07:05:08.072Z,100270.41
2023-05-25T07:07:34.776Z,100270.41
2023-05-25T07:10:04.701Z,100273.59
2023-05-25T07:12:31.528Z,100280.22
2023-05-25T07:14:58.538Z,100274.72
2023-05-25T07:17:25.268Z,100279.63
2023-05-25T07:19:52.150Z,100275.13
2023-05-25T07:22:23.848Z,100280.50
2023-05-25T07:24:54.926Z,100276.78
2023-05-25T07:27:21.600Z,100269.63
2023-05-25T07:29:48.256Z,100284.94
2023-05-25T07:32:17.330Z,100289.09
2023-05-25T07:34:43.952Z,100270.09
2023-05-25T07:37:12.645Z,100270.03
2023-05-25T07:39:40.578Z,100281.75
2023-05-25T07:42:07.341Z,100276.56
2023-05-25T07:44:33.979Z,100289.81
2023-05-25T07:47:02.988Z,100287.44
2023-05-25T07:49:29.716Z,100288.09
2023-05-25T07:51:56.357Z,100286.13
2023-05-25T07:54:23.425Z,100286.28
2023-05-25T07:56:52.431Z,100284.66
2023-05-25T07:59:21.842Z,100286.66
2023-05-25T08:01:48.597Z,100289.25
2023-05-25T08:04:15.496Z,100281.75
2023-05-25T08:06:44.797Z,100283.09
2023-05-25T08:09:14.388Z,100280.16
2023-05-25T08:11:41.156Z,100290.19
2023-05-25T08:14:10.293Z,100285.97
2023-05-25T08:16:37.266Z,100285.97
2023-05-25T08:19:06.383Z,100277.47
2023-05-25T08:21:35.066Z,100284.16
2023-05-25T08:24:08.459Z,100280.53
2023-05-25T08:26:52.341Z,100279.16
2023-05-25T08:29:21.301Z,100280.97
2023-05-25T08:31:49.754Z,100275.91
2023-05-25T08:34:17.060Z,100278.34
2023-05-25T08:36:46.129Z,100284.34
2023-05-25T08:39:13.321Z,100283.81
2023-05-25T08:41:43.570Z,100287.69
2023-05-25T08:44:14.784Z,100288.78
2023-05-25T08:46:44.250Z,100291.72
2023-05-25T08:49:11.943Z,100296.16
2023-05-25T08:51:42.788Z,100288.47
2023-05-25T08:54:12.255Z,100287.56
2023-05-25T08:56:59.264Z,100289.03
2023-05-25T08:59:44.654Z,100295.00
2023-05-25T09:02:27.003Z,100276.50
2023-05-25T09:04:57.940Z,100279.22
2023-05-25T09:07:24.940Z,100281.16
2023-05-25T09:09:52.084Z,100281.78
2023-05-25T09:12:22.919Z,100281.66
2023-05-25T09:14:52.825Z,100277.88
2023-05-25T09:17:21.290Z,100288.72
2023-05-25T09:19:48.177Z,100296.75
2023-05-25T09:22:16.997Z,100295.56
2023-05-25T09:24:45.273Z,100291.38
2023-05-25T09:27:17.410Z,100292.53
2023-05-25T09:29:47.352Z,100292.44
2023-05-25T09:32:14.518Z,100288.88
2023-05-25T09:37:15.042Z,100293.84
2023-05-25T09:39:47.947Z,100301.22
2023-05-25T09:42:14.726Z,100299.84
2023-05-25T09:44:44.678Z,100304.59
2023-05-25T09:47:13.800Z,100288.34
2023-05-25T09:49:40.640Z,100287.88
2023-05-25T09:52:07.283Z,100288.25
2023-05-25T09:54:33.897Z,100294.16
2023-05-25T09:57:04.203Z,100297.63
2023-05-25T09:59:31.515Z,100297.34
2023-05-25T10:01:58.493Z,100298.53
2023-05-25T10:04:25.170Z,100296.22
2023-05-25T10:06:54.370Z,100296.59
2023-05-25T10:09:21.747Z,100300.16
2023-05-25T10:11:54.849Z,100294.03
2023-05-25T10:14:29.489Z,100298.94
2023-05-25T10:17:04.157Z,100286.84
2023-05-25T10:19:42.866Z,100296.72
2023-05-25T10:22:25.581Z,100297.78
2023-05-25T10:25:01.863Z,100292.66
2023-05-25T10:27:37.722Z,100285.78
2023-05-25T10:30:10.817Z,100282.91
2023-05-25T10:32:41.006Z,100288.34
2023-05-25T10:35:09.601Z,100282.72
2023-05-25T10:37:37.213Z,100287.16
2023-05-25T10:40:08.591Z,100280.97
2023-05-25T10:42:38.263Z,100273.94
2023-05-25T10:45:11.633Z,100275.91
2023-05-25T10:47:43.085Z,100278.28
2023-05-25T10:50:28.744Z,100282.16
2023-05-25T10:53:21.878Z,100276.91
2023-05-25T10:55:51.939Z,100278.91
2023-05-25T10:58:20.661Z,100279.66
2023-05-25T11:01:02.711Z,100278.72
2023-05-25T11:03:45.075Z,100277.78
2023-05-25T11:06:16.344Z,100271.41
2023-05-25T11:08:54.862Z,100273.47
2023-05-25T11:11:45.414Z,100268.31
2023-05-25T11:14:30.139Z,100265.47
2023-05-25T11:17:15.056Z,100265.34
2023-05-25T11:19:51.058Z,100256.66
2023-05-25T11:22:23.741Z,100261.13
2023-05-25T11:24:55.580Z,100262.63
2023-05-25T11:27:30.196Z,100253.22
2023-05-25T11:30:00.716Z,100252.34
2023-05-25T11:32:28.376Z,100250.41
2023-05-25T11:34:57.475Z,100248.69
2023-05-25T11:37:33.658Z,100246.25
2023-05-25T11:40:06.807Z,100242.81
2023-05-25T11:42:33.890Z,100239.22
2023-05-25T11:45:06.182Z,100243.28
2023-05-25T11:47:35.101Z,100243.19
2023-05-25T11:50:04.729Z,100226.69
2023-05-25T11:52:33.792Z,100224.50
2023-05-25T11:55:00.498Z,100213.47
2023-05-25T11:57:27.116Z,100205.91
2023-05-25T11:59:55.551Z,100216.53
2023-05-25T12:02:24.827Z,100215.31
2023-05-25T12:05:00.200Z,100202.03
2023-05-25T12:07:28.880Z,100203.78
2023-05-25T12:10:13.045Z,100207.47
2023-05-25T12:12:42.835Z,100207.88
2023-05-25T12:15:13.959Z,100208.00
2023-05-25T12:17:42.548Z,100201.56
2023-05-25T12:20:11.007Z,100208.69
2023-05-25T12:22:39.532Z,100195.88
2023-05-25T12:25:07.925Z,100193.56
2023-05-25T12:27:40.203Z,100201.13
2023-05-25T12:30:09.434Z,100197.09
2023-05-25T12:32:54.564Z,100195.09
2023-05-25T12:35:26.283Z,100201.34
2023-05-25T12:38:14.273Z,100205.63
2023-05-25T12:40:42.441Z,100207.19
2023-05-25T12:43:12.093Z,100195.66
2023-05-25T12:45:44.736Z,100196.31
2023-05-25T12:48:13.903Z,100203.44
2023-05-25T12:50:59.455Z,100199.78
2023-05-25T12:53:29.090Z,100198.31
2023-05-25T12:56:03.156Z,100191.34
2023-05-25T12:58:32.342Z,100188.69
2023-05-25T13:01:01.460Z,100182.28
2023-05-25T13:03:33.143Z,100179.34
2023-05-25T13:06:03.626Z,100177.59
2023-05-25T13:08:30.650Z,100176.94
2023-05-25T13:11:01.464Z,100172.28
2023-05-25T13:13:30.488Z,100179.72
2023-05-25T13:15:58.773Z,100169.47
2023-05-25T13:18:30.417Z,100166.28
2023-05-25T13:20:59.498Z,100168.66
2023-05-25T13:23:28.686Z,100163.09
2023-05-25T13:25:57.623Z,100152.59
2023-05-25T13:28:24.366Z,100152.63
2023-05-25T13:30:53.434Z,100154.72
2023-05-25T13:33:20.337Z,100156.06
2023-05-25T13:35:58.825Z,100151.44
2023-05-25T13:38:29.580Z,100151.28
2023-05-25T13:40:57.550Z,100144.22
2023-05-25T13:43:24.361Z,100154.47
2023-05-25T13:45:50.979Z,100142.75
2023-05-25T13:48:19.983Z,100126.59
2023-05-25T13:50:46.887Z,100135.31
2023-05-25T13:53:13.946Z,100134.53
2023-05-25T13:55:43.277Z,100128.84
2023-05-25T13:58:10.159Z,100127.00
2023-05-25T14:00:40.482Z,100122.44
2023-05-25T14:03:07.204Z,100117.44
2023-05-25T14:05:34.011Z,100110.25
2023-05-25T14:08:02.674Z,100113.88
2023-05-25T14:10:29.244Z,100116.81
2023-05-25T14:12:58.701Z,100108.00
2023-05-25T14:15:29.796Z,100119.41
2023-05-25T14:17:57.601Z,100113.88
2023-05-25T14:20:26.325Z,100102.06
2023-05-25T14:22:56.596Z,100110.13
2023-05-25T14:25:23.214Z,100097.66
2023-05-25T14:27:52.125Z,100099.09
2023-05-25T14:30:18.879Z,100104.59
2023-05-25T14:32:48.142Z,100088.28
2023-05-25T14:35:17.419Z,100092.75
2023-05-25T14:37:46.456Z,100090.38
2023-05-25T14:40:18.248Z,100088.38
2023-05-25T14:42:47.894Z,100097.88
2023-05-25T14:45:16.096Z,100095.75
2023-05-25T14:47:43.095Z,100093.03
2023-05-25T14:50:10.937Z,100089.41
2023-05-25T14:52:41.965Z,100094.19
2023-05-25T14:55:12.068Z,100088.03
2023-05-25T14:57:38.812Z,100081.25
2023-05-25T15:00:08.605Z,100078.50
2023-05-25T15:02:40.107Z,100085.25
2023-05-25T15:05:07.285Z,100075.72
2023-05-25T15:07:33.958Z,100082.00
2023-05-25T15:10:00.778Z,100079.78
2023-05-25T15:12:29.807Z,100087.41
2023-05-25T15:14:58.566Z,100084.22
2023-05-25T15:17:25.309Z,100088.06
2023-05-25T15:19:51.914Z,100082.50
2023-05-25T15:22:23.156Z,100081.59
2023-05-25T15:24:51.041Z,100085.19
2023-05-25T15:27:17.713Z,100070.47
2023-05-25T15:29:46.847Z,100076.78
2023-05-25T15:32:18.333Z,100078.38
2023-05-25T15:34:47.272Z,100081.47
2023-05-25T15:37:13.915Z,100077.84
2023-05-25T15:39:43.787Z,100077.78
2023-05-25T15:42:10.490Z,100067.22
2023-05-25T15:44:37.094Z,100076.03
2023-05-25T15:47:03.887Z,100078.94
2023-05-25T15:49:30.766Z,100083.06
2023-05-25T15:51:57.524Z,100078.88
2023-05-25T15:54:26.397Z,100073.88
2023-05-25T15:56:56.036Z,100073.59
2023-05-25T15:59:22.659Z,100082.84
2023-05-25T16:01:49.255Z,100084.88
2023-05-25T16:04:18.278Z,100072.31
2023-05-25T16:06:48.708Z,100081.25
2023-05-25T16:09:16.224Z,100074.63
2023-05-25T16:11:42.913Z,100076.22
2023-05-25T16:14:09.504Z,100081.56
2023-05-25T16:16:36.168Z,100076.06
2023-05-25T16:19:05.121Z,100083.72
2023-05-25T16:21:37.991Z,100080.63
2023-05-25T16:24:08.526Z,100074.88
2023-05-25T16:26:37.403Z,100092.69
2023-05-25T16:29:06.286Z,100074.13
2023-05-25T16:31:34.561Z,100084.00
2023-05-25T16:34:02.894Z,100081.84
2023-05-25T16:36:31.745Z,100090.91
2023-05-25T16:39:00.823Z,100087.09
2023-05-25T16:41:32.305Z,100081.09
2023-05-25T16:43:58.921Z,100084.34
2023-05-25T16:46:27.916Z,100088.16
2023-05-25T16:48:54.535Z,100095.25
2023-05-25T16:51:21.194Z,100086.56
2023-05-25T16:53:53.801Z,100091.41
2023-05-25T16:56:24.546Z,100085.16
2023-05-25T16:58:53.826Z,100082.81
2023-05-25T17:01:22.994Z,100089.22
2023-05-25T17:03:52.017Z,100092.59
2023-05-25T17:06:18.643Z,100090.91
2023-05-25T17:08:50.150Z,100088.38
2023-05-25T17:11:19.299Z,100078.03
2023-05-25T17:13:48.355Z,100079.47
2023-05-25T17:16:15.106Z,100085.22
2023-05-25T17:18:49.027Z,100091.97
2023-05-25T17:21:15.663Z,100080.63
2023-05-25T17:23:42.304Z,100085.06
2023-05-25T17:26:11.190Z,100088.91
2023-05-25T17:28:42.452Z,100100.66
2023-05-25T17:31:12.101Z,100090.13
2023-05-25T17:33:39.194Z,100094.94
2023-05-25T17:36:08.767Z,100087.09
2023-05-25T17:38:37.058Z,100090.13
2023-05-25T17:41:03.655Z,100086.06
2023-05-25T17:43:34.858Z,100090.19
2023-05-25T17:46:01.549Z,100085.50
2023-05-25T17:48:30.693Z,100084.53
2023-05-25T17:50:59.787Z,100088.47
2023-05-25T17:53:28.633Z,100091.75
2023-05-25T17:55:57.567Z,100084.16
2023-05-25T17:58:24.227Z,100085.06
2023-05-25T18:00:53.199Z,100088.34
2023-05-25T18:03:19.940Z,100092.91
2023-05-25T18:05:51.828Z,100091.25
2023-05-25T18:08:21.262Z,100095.53
2023-05-25T18:10:50.227Z,100094.44
2023-05-25T18:13:16.918Z,100096.16
2023-05-25T18:15:43.771Z,100086.88
2023-05-25T18:18:10.836Z,100097.75
2023-05-25T18:20:37.599Z,100098.16
2023-05-25T18:23:08.337Z,100099.09
2023-05-25T18:25:40.188Z,100108.97
2023-05-25T18:28:09.914Z,100108.75
2023-05-25T18:30:41.294Z,100108.00
2023-05-25T18:33:10.716Z,100114.78
2023-05-25T18:35:39.281Z,100113.31
2023-05-25T18:38:06.794Z,100116.50
2023-05-25T18:40:35.784Z,100120.59
2023-05-25T18:43:02.429Z,100125.66
2023-05-25T18:45:31.261Z,100120.59
2023-05-25T18:47:58.189Z,100141.56
2023-05-25T18:50:27.090Z,100132.19
2023-05-25T18:52:53.976Z,100131.72
2023-05-25T18:55:22.973Z,100139.41
2023-05-25T18:57:49.771Z,100140.28
2023-05-25T19:00:16.886Z,100144.88
2023-05-25T19:02:43.555Z,100149.16
2023-05-25T19:05:13.032Z,100152.47
2023-05-25T19:07:54.660Z,100149.84
2023-05-25T19:10:25.426Z,100156.28
2023-05-25T19:12:53.174Z,100158.91
2023-05-25T19:15:20.063Z,100160.88
2023-05-25T19:17:49.266Z,100156.41
2023-05-25T19:20:16.998Z,100163.63
2023-05-25T19:22:43.808Z,100156.75
2023-05-25T19:25:12.720Z,100153.94
2023-05-25T19:27:44.767Z,100155.97
2023-05-25T19:30:14.097Z,100161.22
2023-05-25T19:32:46.043Z,100159.44
2023-05-25T19:35:13.037Z,100156.72
2023-05-25T19:37:41.441Z,100163.91
2023-05-25T19:40:11.222Z,100163.88
2023-05-25T19:42:42.956Z,100155.13
2023-05-25T19:45:09.892Z,100162.25
2023-05-25T19:47:36.668Z,100158.66
2023-05-25T19:50:03.429Z,100163.22
2023-05-25T19:52:32.273Z,100163.94
2023-05-25T19:54:59.066Z,100153.50
2023-05-25T19:57:28.079Z,100158.84
2023-05-25T19:59:59.811Z,100163.34
2023-05-25T20:02:28.774Z,100160.66
2023-05-25T20:04:55.624Z,100158.81
2023-05-25T20:07:22.349Z,100165.03
2023-05-25T20:09:57.354Z,100170.81
2023-05-25T20:12:24.152Z,100162.53
2023-05-25T20:14:54.577Z,100164.28
2023-05-25T20:17:26.454Z,100166.97
2023-05-25T20:19:53.993Z,100170.44
2023-05-25T20:22:23.207Z,100166.19
2023-05-25T20:24:58.306Z,100164.44
2023-05-25T20:27:27.728Z,100167.00
2023-05-25T20:29:54.850Z,100169.03
2023-05-25T20:32:23.914Z,100161.94
2023-05-25T20:34:50.773Z,100169.81
2023-05-25T20:37:19.715Z,100169.75
2023-05-25T20:39:48.560Z,100169.63
2023-05-25T20:42:15.134Z,100173.38
2023-05-25T20:44:41.743Z,100166.53
2023-05-25T20:47:08.434Z,100168.13
2023-05-25T20:49:35.103Z,100165.56
2023-05-25T20:52:01.666Z,100171.41
2023-05-25T20:54:30.797Z,100179.31
2023-05-25T20:56:57.556Z,100164.22
2023-05-25T20:59:24.320Z,100173.22
2023-05-25T21:01:53.238Z,100173.06
2023-05-25T21:04:20.101Z,100169.31
2023-05-25T21:06:49.771Z,100174.41
2023-05-25T21:09:18.724Z,100177.97
2023-05-25T21:11:45.735Z,100182.25
2023-05-25T21:14:12.366Z,100179.63
2023-05-25T21:16:39.138Z,100186.75
2023-05-25T21:19:05.801Z,100191.19
2023-05-25T21:21:35.873Z,100183.72
2023-05-25T21:24:03.375Z,100180.41
2023-05-25T21:26:32.780Z,100176.25
2023-05-25T21:29:01.840Z,100181.09
2023-05-25T21:31:31.563Z,100178.25
2023-05-25T21:33:59.958Z,100180.88
2023-05-25T21:36:26.985Z,100182.59
2023-05-25T21:39:03.526Z,100191.31
2023-05-25T21:41:31.110Z,100190.78
2023-05-25T21:43:59.987Z,100196.75
2023-05-25T21:46:26.523Z,100207.31
2023-05-25T21:48:55.513Z,100200.44
2023-05-25T21:51:22.130Z,100206.53
2023-05-25T21:53:50.989Z,100208.19
2023-05-25T21:56:19.887Z,100207.59
2023-05-25T21:58:46.533Z,100205.91
2023-05-25T22:01:13.197Z,100206.38
2023-05-25T22:03:42.428Z,100201.84
2023-05-25T22:06:09.162Z,100211.28
2023-05-25T22:08:38.032Z,100211.59
2023-05-25T22:11:04.642Z,100207.13
2023-05-25T22:13:33.993Z,100199.97
2023-05-25T22:16:00.839Z,100202.44
2023-05-25T22:18:30.145Z,100207.56
2023-05-25T22:20:56.778Z,100202.34
2023-05-25T22:23:26.180Z,100203.38
2023-05-25T22:25:55.129Z,100205.03
2023-05-25T22:28:24.132Z,100207.53
2023-05-25T22:30:50.933Z,100201.53
2023-05-25T22:33:17.661Z,100190.38
2023-05-25T22:36:03.311Z,100199.19
2023-05-25T22:38:35.248Z,100198.69
2023-05-25T22:41:02.017Z,100196.06
2023-05-25T22:43:28.645Z,100188.25
2023-05-25T22:45:57.035Z,100192.38
2023-05-25T22:48:25.959Z,100198.56
2023-05-25T22:50:55.158Z,100200.41
2023-05-25T22:53:24.376Z,100196.94
2023-05-25T22:55:51.261Z,100194.22
2023-05-25T22:58:18.285Z,100186.41
2023-05-25T23:00:44.906Z,100198.69
2023-05-25T23:03:14.143Z,100198.78
2023-05-25T23:05:40.953Z,100192.09
2023-05-25T23:08:08.397Z,100190.44
2023-05-25T23:10:39.953Z,100191.13
2023-05-25T23:13:09.544Z,100190.22
2023-05-25T23:15:41.718Z,100197.13
2023-05-25T23:18:08.472Z,100192.06
2023-05-25T23:20:37.881Z,100197.91
2023-05-25T23:23:07.431Z,100193.59
2023-05-25T23:25:36.666Z,100191.84
2023-05-25T23:28:05.687Z,100185.06
2023-05-25T23:30:34.555Z,100185.22
2023-05-25T23:33:03.763Z,100191.38
2023-05-25T23:35:32.900Z,100180.88
2023-05-25T23:38:02.225Z,100185.63
2023-05-25T23:40:31.760Z,100189.00
2023-05-25T23:42:58.383Z,100179.50
2023-05-25T23:45:29.657Z,100193.38
2023-05-25T23:47:56.484Z,100189.75
2023-05-25T23:50:23.246Z,100190.78
2023-05-25T23:52:52.629Z,100206.69
2023-05-25T23:55:19.246Z,100190.91
2023-05-25T23:57:46.457Z,100193.41
